createdAt,value
2019-02-23T00:00:40.270Z,1039.75
2019-02-23T00:01:40.256Z,1039.76
2019-02-23T00:02:40.239Z,1039.77
2019-02-23T00:03:40.229Z,1039.76
2019-02-23T00:04:40.220Z,1039.75
2019-02-23T00:05:40.216Z,1039.73
2019-02-23T00:06:40.199Z,1039.72
2019-02-23T00:07:40.191Z,1039.74
2019-02-23T00:08:40.177Z,1039.67
2019-02-23T00:09:40.170Z,1039.65
2019-02-23T00:10:40.164Z,1039.72
2019-02-23T00:11:40.145Z,1039.78
2019-02-23T00:12:40.138Z,1039.77
2019-02-23T00:13:40.124Z,1039.84
2019-02-23T00:14:40.115Z,1039.83
2019-02-23T00:15:40.112Z,1039.78
2019-02-23T00:16:40.093Z,1039.80
2019-02-23T00:17:40.086Z,1039.80
2019-02-23T00:18:40.077Z,1039.86
2019-02-23T00:19:40.063Z,1039.85
2019-02-23T00:20:40.062Z,1039.90
2019-02-23T00:21:40.042Z,1039.96
2019-02-23T00:22:40.032Z,1039.96
2019-02-23T00:23:40.021Z,1039.91
2019-02-23T00:24:40.017Z,1039.94
2019-02-23T00:25:40.011Z,1039.89
2019-02-23T00:26:39.992Z,1039.95
2019-02-23T00:27:39.982Z,1039.99
2019-02-23T00:28:39.970Z,1039.93
2019-02-23T00:29:39.960Z,1039.92
2019-02-23T00:30:39.960Z,1039.90
2019-02-23T00:31:39.939Z,1039.90
2019-02-23T00:32:39.931Z,1039.89
2019-02-23T00:33:39.918Z,1039.87
2019-02-23T00:34:39.911Z,1039.85
2019-02-23T00:35:39.946Z,1039.81
2019-02-23T00:36:39.887Z,1039.83
2019-02-23T00:37:39.877Z,1039.79
2019-02-23T00:38:39.866Z,1039.75
2019-02-23T00:39:39.856Z,1039.78
2019-02-23T00:40:39.846Z,1039.80
2019-02-23T00:41:39.844Z,1039.73
2019-02-23T00:42:39.825Z,1039.76
2019-02-23T00:43:39.815Z,1039.72
2019-02-23T00:44:39.805Z,1039.77
2019-02-23T00:45:39.794Z,1039.69
2019-02-23T00:46:39.792Z,1039.62
2019-02-23T00:47:39.773Z,1039.63
2019-02-23T00:48:39.763Z,1039.63
2019-02-23T00:49:39.761Z,1039.69
2019-02-23T00:50:39.743Z,1039.71
2019-02-23T00:51:39.747Z,1039.79
2019-02-23T00:52:39.722Z,1039.80
2019-02-23T00:53:39.718Z,1039.82
2019-02-23T00:54:39.707Z,1039.79
2019-02-23T00:55:39.695Z,1039.76
2019-02-23T00:56:39.694Z,1039.74
2019-02-23T00:57:39.670Z,1039.71
2019-02-23T00:58:39.660Z,1039.69
2019-02-23T00:59:39.649Z,1039.73
2019-02-23T01:00:39.640Z,1039.76
2019-02-23T01:01:39.640Z,1039.81
2019-02-23T01:02:39.621Z,1039.85
2019-02-23T01:03:39.609Z,1039.88
2019-02-23T01:04:39.599Z,1039.85
2019-02-23T01:05:39.589Z,1039.84
2019-02-23T01:06:39.586Z,1039.76
2019-02-23T01:07:39.572Z,1039.61
2019-02-23T01:08:39.560Z,1039.54
2019-02-23T01:09:39.548Z,1039.51
2019-02-23T01:10:39.538Z,1039.50
2019-02-23T01:11:39.536Z,1039.49
2019-02-23T01:12:39.515Z,1039.49
2019-02-23T01:13:39.511Z,1039.44
2019-02-23T01:14:39.496Z,1039.43
2019-02-23T01:15:39.485Z,1039.40
2019-02-23T01:16:39.486Z,1039.39
2019-02-23T01:17:39.465Z,1039.38
2019-02-23T01:18:39.454Z,1039.35
2019-02-23T01:19:47.285Z,1039.33
2019-02-23T01:20:40.432Z,1039.25
2019-02-23T01:21:39.433Z,1039.21
2019-02-23T01:22:39.414Z,1039.18
2019-02-23T01:23:39.402Z,1039.19
2019-02-23T01:24:39.393Z,1039.18
2019-02-23T01:25:39.386Z,1039.18
2019-02-23T01:26:39.381Z,1039.15
2019-02-23T01:27:39.361Z,1039.12
2019-02-23T01:28:39.351Z,1039.11
2019-02-23T01:29:39.341Z,1039.09
2019-02-23T01:30:39.330Z,1039.01
2019-02-23T01:31:39.333Z,1039.03
2019-02-23T01:32:39.310Z,1039.02
2019-02-23T01:33:39.299Z,1038.98
2019-02-23T01:34:39.290Z,1038.92
2019-02-23T01:35:39.280Z,1038.92
2019-02-23T01:36:39.280Z,1038.87
2019-02-23T01:37:39.258Z,1038.87
2019-02-23T01:38:39.250Z,1038.86
2019-02-23T01:39:39.240Z,1038.90
2019-02-23T01:40:39.227Z,1038.89
2019-02-23T01:41:39.255Z,1038.89
2019-02-23T01:42:39.209Z,1038.91
2019-02-23T01:43:39.197Z,1038.94
2019-02-23T01:44:39.186Z,1038.90
2019-02-23T01:45:42.412Z,1038.93
2019-02-23T01:46:39.173Z,1039.00
2019-02-23T01:47:39.154Z,1038.99
2019-02-23T01:48:39.144Z,1039.02
2019-02-23T01:49:39.136Z,1039.08
2019-02-23T01:50:39.124Z,1039.06
2019-02-23T01:51:39.123Z,1039.07
2019-02-23T01:52:39.106Z,1039.07
2019-02-23T01:53:39.093Z,1039.05
2019-02-23T01:54:39.082Z,1039.04
2019-02-23T01:55:39.074Z,1039.03
2019-02-23T01:56:39.071Z,1038.97
2019-02-23T01:57:39.054Z,1039.02
2019-02-23T01:58:39.041Z,1039.01
2019-02-23T01:59:39.031Z,1039.01
2019-02-23T02:00:39.020Z,1039.01
2019-02-23T02:01:39.018Z,1039.03
2019-02-23T02:02:39.000Z,1039.03
2019-02-23T02:03:38.990Z,1039.04
2019-02-23T02:04:38.980Z,1038.99
2019-02-23T02:05:38.968Z,1038.94
2019-02-23T02:06:38.967Z,1038.93
2019-02-23T02:07:38.954Z,1038.93
2019-02-23T02:08:38.938Z,1038.95
2019-02-23T02:09:38.928Z,1038.92
2019-02-23T02:10:38.917Z,1038.95
2019-02-23T02:11:38.915Z,1038.95
2019-02-23T02:12:38.898Z,1038.98
2019-02-23T02:13:38.892Z,1038.95
2019-02-23T02:14:38.876Z,1038.92
2019-02-23T02:15:38.865Z,1038.94
2019-02-23T02:16:38.866Z,1038.96
2019-02-23T02:17:38.845Z,1038.98
2019-02-23T02:18:38.837Z,1038.99
2019-02-23T02:19:38.823Z,1038.97
2019-02-23T02:20:38.813Z,1038.95
2019-02-23T02:21:38.813Z,1038.91
2019-02-23T02:22:38.793Z,1038.79
2019-02-23T02:23:38.783Z,1038.76
2019-02-23T02:24:38.777Z,1038.73
2019-02-23T02:25:38.761Z,1038.70
2019-02-23T02:26:38.759Z,1038.69
2019-02-23T02:27:38.742Z,1038.64
2019-02-23T02:28:38.732Z,1038.71
2019-02-23T02:29:38.722Z,1038.71
2019-02-23T02:30:38.711Z,1038.74
2019-02-23T02:31:38.711Z,1038.71
2019-02-23T02:32:38.690Z,1038.73
2019-02-23T02:33:38.679Z,1038.74
2019-02-23T02:34:38.668Z,1038.75
2019-02-23T02:35:38.663Z,1038.76
2019-02-23T02:36:38.680Z,1038.81
2019-02-23T02:37:38.656Z,1038.73
2019-02-23T02:38:38.629Z,1038.70
2019-02-23T02:39:38.617Z,1038.68
2019-02-23T02:40:38.608Z,1038.71
2019-02-23T02:41:38.599Z,1038.70
2019-02-23T02:42:38.596Z,1038.72
2019-02-23T02:43:38.575Z,1038.67
2019-02-23T02:44:38.569Z,1038.65
2019-02-23T02:45:38.555Z,1038.65
2019-02-23T02:46:38.558Z,1038.64
2019-02-23T02:47:38.543Z,1038.65
2019-02-23T02:48:38.523Z,1038.64
2019-02-23T02:49:38.513Z,1038.61
2019-02-23T02:50:38.503Z,1038.54
2019-02-23T02:51:38.492Z,1038.56
2019-02-23T02:52:38.491Z,1038.50
2019-02-23T02:53:38.472Z,1038.50
2019-02-23T02:54:38.462Z,1038.47
2019-02-23T02:55:38.451Z,1038.48
2019-02-23T02:56:38.441Z,1038.48
2019-02-23T02:57:38.439Z,1038.43
2019-02-23T02:58:38.420Z,1038.43
2019-02-23T02:59:38.410Z,1038.41
2019-02-23T03:00:38.400Z,1038.35
2019-02-23T03:01:38.389Z,1038.40
2019-02-23T03:02:38.387Z,1038.41
2019-02-23T03:03:38.369Z,1038.37
2019-02-23T03:04:38.363Z,1038.35
2019-02-23T03:05:38.349Z,1038.36
2019-02-23T03:06:38.338Z,1038.39
2019-02-23T03:07:38.340Z,1038.36
2019-02-23T03:08:38.316Z,1038.36
2019-02-23T03:09:38.306Z,1038.38
2019-02-23T03:10:38.295Z,1038.46
2019-02-23T03:11:38.286Z,1038.44
2019-02-23T03:12:38.286Z,1038.47
2019-02-23T03:13:38.265Z,1038.44
2019-02-23T03:14:38.254Z,1038.48
2019-02-23T03:15:38.244Z,1038.44
2019-02-23T03:16:38.234Z,1038.49
2019-02-23T03:17:38.231Z,1038.52
2019-02-23T03:18:38.215Z,1038.53
2019-02-23T03:19:38.207Z,1038.56
2019-02-23T03:20:38.193Z,1038.60
2019-02-23T03:21:38.182Z,1038.57
2019-02-23T03:22:38.185Z,1038.56
2019-02-23T03:23:38.160Z,1038.60
2019-02-23T03:24:38.152Z,1038.59
2019-02-23T03:25:38.139Z,1038.62
2019-02-23T03:26:38.133Z,1038.67
2019-02-23T03:27:38.126Z,1038.70
2019-02-23T03:28:38.108Z,1038.72
2019-02-23T03:29:38.100Z,1038.67
2019-02-23T03:30:38.091Z,1038.67
2019-02-23T03:31:38.078Z,1038.68
2019-02-23T03:32:38.086Z,1038.67
2019-02-23T03:33:38.058Z,1038.67
2019-02-23T03:34:38.048Z,1038.63
2019-02-23T03:35:38.036Z,1038.62
2019-02-23T03:36:38.033Z,1038.57
2019-02-23T03:37:38.023Z,1038.61
2019-02-23T03:38:38.009Z,1038.59
2019-02-23T03:39:38.003Z,1038.62
2019-02-23T03:40:38.047Z,1038.61
2019-02-23T03:41:37.973Z,1038.55
2019-02-23T03:42:37.973Z,1038.60
2019-02-23T03:43:37.955Z,1038.60
2019-02-23T03:44:37.942Z,1038.64
2019-02-23T03:45:37.936Z,1038.66
2019-02-23T03:46:37.921Z,1038.68
2019-02-23T03:47:37.921Z,1038.73
2019-02-23T03:48:37.905Z,1038.77
2019-02-23T03:49:37.903Z,1038.76
2019-02-23T03:50:48.693Z,1038.76
2019-02-23T03:51:38.868Z,1038.62
2019-02-23T03:52:37.868Z,1038.63
2019-02-23T03:53:37.849Z,1038.48
2019-02-23T03:54:37.843Z,1038.47
2019-02-23T03:55:37.831Z,1038.56
2019-02-23T03:56:37.819Z,1038.59
2019-02-23T03:57:37.816Z,1038.61
2019-02-23T03:58:37.797Z,1038.63
2019-02-23T03:59:37.787Z,1038.71
2019-02-23T04:00:37.786Z,1038.64
2019-02-23T04:01:37.766Z,1038.62
2019-02-23T04:02:37.766Z,1038.62
2019-02-23T04:03:37.747Z,1038.61
2019-02-23T04:04:37.736Z,1038.58
2019-02-23T04:05:37.727Z,1038.60
2019-02-23T04:06:37.718Z,1038.52
2019-02-23T04:07:37.713Z,1038.52
2019-02-23T04:08:37.694Z,1038.53
2019-02-23T04:09:37.684Z,1038.45
2019-02-23T04:10:37.673Z,1038.49
2019-02-23T04:11:37.665Z,1038.42
2019-02-23T04:12:37.665Z,1038.49
2019-02-23T04:13:37.642Z,1038.51
2019-02-23T04:14:37.632Z,1038.53
2019-02-23T04:15:37.622Z,1038.54
2019-02-23T04:16:37.614Z,1038.57
2019-02-23T04:17:37.625Z,1038.54
2019-02-23T04:18:37.596Z,1038.62
2019-02-23T04:19:37.581Z,1038.61
2019-02-23T04:20:37.571Z,1038.67
2019-02-23T04:21:37.560Z,1038.72
2019-02-23T04:22:37.564Z,1038.81
2019-02-23T04:23:37.545Z,1038.83
2019-02-23T04:24:37.530Z,1038.91
2019-02-23T04:25:37.520Z,1039.01
2019-02-23T04:26:37.508Z,1039.04
2019-02-23T04:27:37.508Z,1039.11
2019-02-23T04:28:37.491Z,1039.11
2019-02-23T04:29:37.480Z,1039.17
2019-02-23T04:30:37.466Z,1039.14
2019-02-23T04:31:37.457Z,1039.18
2019-02-23T04:32:37.455Z,1039.23
2019-02-23T04:33:37.435Z,1039.25
2019-02-23T04:34:37.440Z,1039.28
2019-02-23T04:35:37.415Z,1039.35
2019-02-23T04:36:37.404Z,1039.37
2019-02-23T04:37:37.404Z,1039.33
2019-02-23T04:38:37.384Z,1039.34
2019-02-23T04:39:37.379Z,1039.30
2019-02-23T04:40:37.368Z,1039.27
2019-02-23T04:41:37.353Z,1039.19
2019-02-23T04:42:37.351Z,1039.20
2019-02-23T04:43:37.333Z,1039.18
2019-02-23T04:44:37.323Z,1039.20
2019-02-23T04:45:37.314Z,1039.18
2019-02-23T04:46:37.305Z,1039.18
2019-02-23T04:47:37.300Z,1039.10
2019-02-23T04:48:37.282Z,1039.14
2019-02-23T04:49:37.273Z,1039.09
2019-02-23T04:50:37.260Z,1039.01
2019-02-23T04:51:37.251Z,1038.96
2019-02-23T04:52:37.247Z,1038.92
2019-02-23T04:53:37.230Z,1038.86
2019-02-23T04:54:37.220Z,1038.86
2019-02-23T04:55:37.210Z,1038.96
2019-02-23T04:56:37.199Z,1038.98
2019-02-23T04:57:37.197Z,1038.94
2019-02-23T04:58:37.182Z,1038.93
2019-02-23T04:59:37.168Z,1038.90
2019-02-23T05:00:37.158Z,1038.89
2019-02-23T05:01:37.147Z,1038.86
2019-02-23T05:02:37.147Z,1038.87
2019-02-23T05:03:37.126Z,1038.88
2019-02-23T05:04:37.119Z,1038.93
2019-02-23T05:05:37.122Z,1038.94
2019-02-23T05:06:37.095Z,1038.89
2019-02-23T05:07:37.093Z,1038.92
2019-02-23T05:08:37.076Z,1038.87
2019-02-23T05:09:37.065Z,1038.89
2019-02-23T05:10:37.054Z,1038.86
2019-02-23T05:11:37.047Z,1038.79
2019-02-23T05:12:37.051Z,1038.75
2019-02-23T05:13:37.049Z,1038.82
2019-02-23T05:14:37.034Z,1038.79
2019-02-23T05:15:37.004Z,1038.87
2019-02-23T05:16:36.993Z,1038.91
2019-02-23T05:17:36.982Z,1038.93
2019-02-23T05:18:37.046Z,1038.95
2019-02-23T05:19:36.963Z,1038.95
2019-02-23T05:20:36.952Z,1038.98
2019-02-23T05:21:36.942Z,1038.99
2019-02-23T05:22:36.931Z,1038.99
2019-02-23T05:23:36.930Z,1038.92
2019-02-23T05:24:36.910Z,1039.00
2019-02-23T05:25:36.903Z,1039.02
2019-02-23T05:26:36.892Z,1038.98
2019-02-23T05:27:36.881Z,1039.03
2019-02-23T05:28:36.878Z,1038.94
2019-02-23T05:29:36.861Z,1038.90
2019-02-23T05:30:36.850Z,1038.93
2019-02-23T05:31:36.839Z,1038.85
2019-02-23T05:32:36.831Z,1038.84
2019-02-23T05:33:36.828Z,1038.88
2019-02-23T05:34:36.808Z,1038.87
2019-02-23T05:35:36.799Z,1038.94
2019-02-23T05:36:36.788Z,1038.96
2019-02-23T05:37:36.777Z,1039.02
2019-02-23T05:38:36.775Z,1039.02
2019-02-23T05:39:36.759Z,1039.02
2019-02-23T05:40:36.746Z,1039.01
2019-02-23T05:41:36.739Z,1038.98
2019-02-23T05:42:36.729Z,1039.03
2019-02-23T05:43:36.723Z,1039.03
2019-02-23T05:44:36.705Z,1039.05
2019-02-23T05:45:36.697Z,1039.02
2019-02-23T05:46:36.684Z,1039.06
2019-02-23T05:47:36.676Z,1039.02
2019-02-23T05:48:36.677Z,1039.09
2019-02-23T05:49:37.233Z,1039.09
2019-02-23T05:50:36.643Z,1039.08
2019-02-23T05:51:38.981Z,1039.13
2019-02-23T05:52:36.623Z,1039.10
2019-02-23T05:53:36.624Z,1039.07
2019-02-23T05:54:36.602Z,1039.03
2019-02-23T05:55:36.595Z,1039.07
2019-02-23T05:56:36.585Z,1039.04
2019-02-23T05:57:36.572Z,1039.08
2019-02-23T05:58:36.570Z,1039.03
2019-02-23T05:59:36.561Z,1039.07
2019-02-23T06:00:36.543Z,1038.97
2019-02-23T06:01:36.532Z,1039.03
2019-02-23T06:02:36.520Z,1039.02
2019-02-23T06:03:36.521Z,1039.04
2019-02-23T06:04:36.500Z,1039.07
2019-02-23T06:05:36.491Z,1039.15
2019-02-23T06:06:36.479Z,1039.23
2019-02-23T06:07:36.468Z,1039.29
2019-02-23T06:08:36.470Z,1039.21
2019-02-23T06:09:36.496Z,1039.19
2019-02-23T06:10:36.437Z,1039.10
2019-02-23T06:11:36.430Z,1039.08
2019-02-23T06:12:36.416Z,1039.09
2019-02-23T06:13:36.415Z,1039.17
2019-02-23T06:14:36.402Z,1039.21
2019-02-23T06:15:36.386Z,1039.24
2019-02-23T06:16:36.375Z,1039.28
2019-02-23T06:17:36.371Z,1039.30
2019-02-23T06:18:36.364Z,1039.26
2019-02-23T06:19:36.351Z,1039.25
2019-02-23T06:20:36.334Z,1039.24
2019-02-23T06:21:36.324Z,1039.27
2019-02-23T06:22:36.315Z,1039.29
2019-02-23T06:23:36.311Z,1039.31
2019-02-23T06:24:36.293Z,1039.40
2019-02-23T06:25:36.314Z,1039.47
2019-02-23T06:26:36.273Z,1039.50
2019-02-23T06:27:36.268Z,1039.48
2019-02-23T06:28:36.264Z,1039.44
2019-02-23T06:29:36.245Z,1039.46
2019-02-23T06:30:36.231Z,1039.48
2019-02-23T06:31:36.221Z,1039.41
2019-02-23T06:32:36.212Z,1039.47
2019-02-23T06:33:36.212Z,1039.47
2019-02-23T06:34:36.190Z,1039.40
2019-02-23T06:35:36.181Z,1039.37
2019-02-23T06:36:36.172Z,1039.26
2019-02-23T06:37:36.170Z,1039.26
2019-02-23T06:38:36.158Z,1039.17
2019-02-23T06:39:36.138Z,1039.12
2019-02-23T06:40:36.129Z,1039.08
2019-02-23T06:41:36.120Z,1039.08
2019-02-23T06:42:36.109Z,1039.01
2019-02-23T06:43:36.107Z,1038.97
2019-02-23T06:44:36.088Z,1038.80
2019-02-23T06:45:36.078Z,1038.81
2019-02-23T06:46:36.067Z,1038.80
2019-02-23T06:47:36.056Z,1038.78
2019-02-23T06:48:36.056Z,1038.76
2019-02-23T06:49:36.066Z,1038.81
2019-02-23T06:50:36.028Z,1038.77
2019-02-23T06:51:36.016Z,1038.75
2019-02-23T06:52:36.005Z,1038.81
2019-02-23T06:53:36.009Z,1038.83
2019-02-23T06:54:35.984Z,1038.79
2019-02-23T06:55:35.974Z,1038.94
2019-02-23T06:56:35.964Z,1038.97
2019-02-23T06:57:35.953Z,1039.08
2019-02-23T06:58:35.951Z,1039.05
2019-02-23T06:59:35.933Z,1039.07
2019-02-23T07:00:35.924Z,1039.12
2019-02-23T07:01:35.915Z,1039.15
2019-02-23T07:02:35.902Z,1039.15
2019-02-23T07:03:35.904Z,1039.19
2019-02-23T07:04:35.883Z,1039.17
2019-02-23T07:05:35.874Z,1039.23
2019-02-23T07:06:35.861Z,1039.29
2019-02-23T07:07:35.850Z,1039.34
2019-02-23T07:08:35.848Z,1039.39
2019-02-23T07:09:35.830Z,1039.39
2019-02-23T07:10:35.820Z,1039.42
2019-02-23T07:11:35.807Z,1039.48
2019-02-23T07:12:35.797Z,1039.46
2019-02-23T07:13:35.794Z,1039.43
2019-02-23T07:14:35.775Z,1039.44
2019-02-23T07:15:35.770Z,1039.45
2019-02-23T07:16:35.757Z,1039.40
2019-02-23T07:17:35.744Z,1039.38
2019-02-23T07:18:35.742Z,1039.40
2019-02-23T07:19:35.723Z,1039.43
2019-02-23T07:20:43.719Z,1039.45
2019-02-23T07:21:36.705Z,1039.50
2019-02-23T07:22:35.691Z,1039.51
2019-02-23T07:23:35.692Z,1039.49
2019-02-23T07:24:35.670Z,1039.49
2019-02-23T07:25:35.658Z,1039.46
2019-02-23T07:26:35.648Z,1039.44
2019-02-23T07:27:35.636Z,1039.46
2019-02-23T07:28:35.636Z,1039.49
2019-02-23T07:29:35.674Z,1039.50
2019-02-23T07:30:35.605Z,1039.53
2019-02-23T07:31:35.595Z,1039.60
2019-02-23T07:32:35.584Z,1039.60
2019-02-23T07:33:35.588Z,1039.63
2019-02-23T07:34:35.561Z,1039.56
2019-02-23T07:35:35.552Z,1039.49
2019-02-23T07:36:35.542Z,1039.41
2019-02-23T07:37:35.529Z,1039.33
2019-02-23T07:38:35.673Z,1039.24
2019-02-23T07:39:35.508Z,1039.15
2019-02-23T07:40:35.500Z,1039.14
2019-02-23T07:41:35.487Z,1039.07
2019-02-23T07:42:35.476Z,1039.06
2019-02-23T07:43:35.473Z,1039.10
2019-02-23T07:44:35.455Z,1039.15
2019-02-23T07:45:35.447Z,1039.08
2019-02-23T07:46:35.439Z,1038.97
2019-02-23T07:47:35.421Z,1038.92
2019-02-23T07:48:35.418Z,1038.89
2019-02-23T07:49:35.400Z,1038.83
2019-02-23T07:50:35.394Z,1038.78
2019-02-23T07:51:35.378Z,1038.77
2019-02-23T07:52:35.368Z,1038.78
2019-02-23T07:53:35.365Z,1038.73
2019-02-23T07:54:35.346Z,1038.70
2019-02-23T07:55:35.344Z,1038.61
2019-02-23T07:56:35.325Z,1038.60
2019-02-23T07:57:35.316Z,1038.59
2019-02-23T07:58:35.379Z,1038.66
2019-02-23T07:59:35.292Z,1038.68
2019-02-23T08:00:35.282Z,1038.71
2019-02-23T08:01:35.272Z,1038.76
2019-02-23T08:02:35.262Z,1038.90
2019-02-23T08:03:35.250Z,1038.91
2019-02-23T08:04:35.248Z,1038.90
2019-02-23T08:05:35.229Z,1038.99
2019-02-23T08:06:35.220Z,1039.09
2019-02-23T08:07:35.208Z,1039.14
2019-02-23T08:08:35.197Z,1039.10
2019-02-23T08:09:35.196Z,1039.16
2019-02-23T08:10:35.177Z,1039.17
2019-02-23T08:11:35.166Z,1039.17
2019-02-23T08:12:35.158Z,1039.21
2019-02-23T08:13:35.144Z,1039.24
2019-02-23T08:14:35.141Z,1039.27
2019-02-23T08:15:35.133Z,1039.34
2019-02-23T08:16:35.113Z,1039.33
2019-02-23T08:17:35.101Z,1039.34
2019-02-23T08:18:35.090Z,1039.36
2019-02-23T08:19:35.106Z,1039.42
2019-02-23T08:20:35.072Z,1039.33
2019-02-23T08:21:35.064Z,1039.41
2019-02-23T08:22:37.621Z,1039.35
2019-02-23T08:23:35.038Z,1039.29
2019-02-23T08:24:35.028Z,1039.27
2019-02-23T08:25:35.029Z,1039.29
2019-02-23T08:26:35.011Z,1039.25
2019-02-23T08:27:34.997Z,1039.31
2019-02-23T08:28:34.986Z,1039.24
2019-02-23T08:29:34.977Z,1039.27
2019-02-23T08:30:34.974Z,1039.32
2019-02-23T08:31:34.961Z,1039.29
2019-02-23T08:32:34.947Z,1039.33
2019-02-23T08:33:34.933Z,1039.29
2019-02-23T08:34:34.924Z,1039.31
2019-02-23T08:35:34.922Z,1039.29
2019-02-23T08:36:34.900Z,1039.33
2019-02-23T08:37:34.888Z,1039.31
2019-02-23T08:38:34.878Z,1039.32
2019-02-23T08:39:34.869Z,1039.31
2019-02-23T08:40:34.867Z,1039.40
2019-02-23T08:41:34.846Z,1039.37
2019-02-23T08:42:34.835Z,1039.42
2019-02-23T08:43:34.825Z,1039.34
2019-02-23T08:44:34.814Z,1039.29
2019-02-23T08:45:34.811Z,1039.30
2019-02-23T08:46:34.791Z,1039.24
2019-02-23T08:47:34.782Z,1039.28
2019-02-23T08:48:34.771Z,1039.28
2019-02-23T08:49:34.762Z,1039.31
2019-02-23T08:50:34.757Z,1039.31
2019-02-23T08:51:34.739Z,1039.36
2019-02-23T08:52:34.727Z,1039.32
2019-02-23T08:53:34.717Z,1039.36
2019-02-23T08:54:34.707Z,1039.38
2019-02-23T08:55:34.704Z,1039.32
2019-02-23T08:56:34.690Z,1039.30
2019-02-23T08:57:34.675Z,1039.31
2019-02-23T08:58:34.664Z,1039.29
2019-02-23T08:59:34.653Z,1039.24
2019-02-23T09:00:34.657Z,1039.31
2019-02-23T09:01:34.632Z,1039.30
2019-02-23T09:02:34.645Z,1039.35
2019-02-23T09:03:34.609Z,1039.39
2019-02-23T09:04:34.599Z,1039.35
2019-02-23T09:05:34.597Z,1039.34
2019-02-23T09:06:34.579Z,1039.37
2019-02-23T09:07:34.568Z,1039.31
2019-02-23T09:08:34.557Z,1039.33
2019-02-23T09:09:34.548Z,1039.30
2019-02-23T09:10:34.550Z,1039.33
2019-02-23T09:11:34.524Z,1039.39
2019-02-23T09:12:34.516Z,1039.41
2019-02-23T09:13:34.505Z,1039.41
2019-02-23T09:14:34.497Z,1039.39
2019-02-23T09:15:34.508Z,1039.41
2019-02-23T09:16:34.474Z,1039.38
2019-02-23T09:17:34.462Z,1039.36
2019-02-23T09:18:34.454Z,1039.28
2019-02-23T09:19:34.440Z,1039.26
2019-02-23T09:20:34.434Z,1039.27
2019-02-23T09:21:34.431Z,1039.23
2019-02-23T09:22:34.408Z,1039.25
2019-02-23T09:23:34.398Z,1039.20
2019-02-23T09:24:34.387Z,1039.18
2019-02-23T09:25:34.379Z,1039.21
2019-02-23T09:26:34.374Z,1039.21
2019-02-23T09:27:34.357Z,1039.21
2019-02-23T09:28:34.345Z,1039.22
2019-02-23T09:29:34.335Z,1039.27
2019-02-23T09:30:34.323Z,1039.23
2019-02-23T09:31:34.325Z,1039.24
2019-02-23T09:32:34.304Z,1039.16
2019-02-23T09:33:34.291Z,1039.22
2019-02-23T09:34:34.281Z,1039.20
2019-02-23T09:35:34.274Z,1039.16
2019-02-23T09:36:34.267Z,1039.19
2019-02-23T09:37:34.247Z,1039.08
2019-02-23T09:38:34.238Z,1039.06
2019-02-23T09:39:34.226Z,1039.06
2019-02-23T09:40:34.215Z,1039.03
2019-02-23T09:41:34.217Z,1039.02
2019-02-23T09:42:34.196Z,1039.02
2019-02-23T09:43:34.183Z,1038.98
2019-02-23T09:44:34.173Z,1039.03
2019-02-23T09:45:34.163Z,1039.02
2019-02-23T09:46:34.163Z,1039.00
2019-02-23T09:47:34.141Z,1039.07
2019-02-23T09:48:34.130Z,1039.04
2019-02-23T09:49:34.120Z,1039.04
2019-02-23T09:50:34.110Z,1039.10
2019-02-23T09:51:34.106Z,1039.09
2019-02-23T09:52:34.095Z,1039.06
2019-02-23T09:53:34.078Z,1039.20
2019-02-23T09:54:34.067Z,1039.13
2019-02-23T09:55:34.056Z,1039.10
2019-02-23T09:56:34.055Z,1039.06
2019-02-23T09:57:34.035Z,1039.04
2019-02-23T09:58:34.025Z,1039.07
2019-02-23T09:59:34.014Z,1039.05
2019-02-23T10:00:34.007Z,1039.04
2019-02-23T10:01:34.002Z,1039.03
2019-02-23T10:02:33.980Z,1039.08
2019-02-23T10:03:33.971Z,1039.07
2019-02-23T10:04:33.959Z,1039.06
2019-02-23T10:05:33.950Z,1038.98
2019-02-23T10:06:33.947Z,1039.00
2019-02-23T10:07:33.933Z,1039.01
2019-02-23T10:08:33.918Z,1038.91
2019-02-23T10:09:33.977Z,1038.88
2019-02-23T10:10:33.896Z,1038.93
2019-02-23T10:11:33.898Z,1038.90
2019-02-23T10:12:33.875Z,1038.91
2019-02-23T10:13:33.864Z,1038.97
2019-02-23T10:14:33.857Z,1038.93
2019-02-23T10:15:33.845Z,1038.94
2019-02-23T10:16:33.840Z,1038.88
2019-02-23T10:17:33.824Z,1038.89
2019-02-23T10:18:33.810Z,1038.85
2019-02-23T10:19:33.803Z,1038.81
2019-02-23T10:20:33.790Z,1038.78
2019-02-23T10:21:33.789Z,1038.75
2019-02-23T10:22:33.769Z,1038.71
2019-02-23T10:23:33.764Z,1038.74
2019-02-23T10:24:33.749Z,1038.69
2019-02-23T10:25:33.738Z,1038.73
2019-02-23T10:26:33.735Z,1038.69
2019-02-23T10:27:33.718Z,1038.76
2019-02-23T10:28:33.706Z,1038.67
2019-02-23T10:29:33.697Z,1038.74
2019-02-23T10:30:33.689Z,1038.77
2019-02-23T10:31:33.683Z,1038.78
2019-02-23T10:32:33.738Z,1038.76
2019-02-23T10:33:33.652Z,1038.80
2019-02-23T10:34:33.643Z,1038.75
2019-02-23T10:35:33.633Z,1038.73
2019-02-23T10:36:33.621Z,1038.71
2019-02-23T10:37:33.619Z,1038.64
2019-02-23T10:38:33.603Z,1038.59
2019-02-23T10:39:33.588Z,1038.61
2019-02-23T10:40:33.579Z,1038.66
2019-02-23T10:41:33.570Z,1038.64
2019-02-23T10:42:33.563Z,1038.61
2019-02-23T10:43:33.544Z,1038.62
2019-02-23T10:44:33.536Z,1038.57
2019-02-23T10:45:33.525Z,1038.61
2019-02-23T10:46:33.518Z,1038.60
2019-02-23T10:47:33.511Z,1038.59
2019-02-23T10:48:33.490Z,1038.43
2019-02-23T10:49:33.479Z,1038.43
2019-02-23T10:50:33.469Z,1038.44
2019-02-23T10:51:33.458Z,1038.39
2019-02-23T10:52:33.455Z,1038.40
2019-02-23T10:53:33.439Z,1038.38
2019-02-23T10:54:33.429Z,1038.34
2019-02-23T10:55:33.416Z,1038.38
2019-02-23T10:56:33.402Z,1038.34
2019-02-23T10:57:33.403Z,1038.32
2019-02-23T10:58:33.382Z,1038.38
2019-02-23T10:59:33.370Z,1038.37
2019-02-23T11:00:33.359Z,1038.42
2019-02-23T11:01:33.350Z,1038.44
2019-02-23T11:02:33.354Z,1038.47
2019-02-23T11:03:33.327Z,1038.43
2019-02-23T11:04:33.318Z,1038.46
2019-02-23T11:05:33.305Z,1038.46
2019-02-23T11:06:33.296Z,1038.47
2019-02-23T11:07:33.293Z,1038.50
2019-02-23T11:08:33.273Z,1038.50
2019-02-23T11:09:33.265Z,1038.50
2019-02-23T11:10:33.257Z,1038.50
2019-02-23T11:11:33.247Z,1038.47
2019-02-23T11:12:33.240Z,1038.44
2019-02-23T11:13:33.220Z,1038.33
2019-02-23T11:14:33.211Z,1038.36
2019-02-23T11:15:33.196Z,1038.33
2019-02-23T11:16:33.185Z,1038.36
2019-02-23T11:17:33.183Z,1038.35
2019-02-23T11:18:33.163Z,1038.36
2019-02-23T11:19:33.153Z,1038.42
2019-02-23T11:20:33.144Z,1038.40
2019-02-23T11:21:33.134Z,1038.36
2019-02-23T11:22:33.135Z,1038.35
2019-02-23T11:23:43.430Z,1038.33
2019-02-23T11:24:34.102Z,1038.23
2019-02-23T11:25:33.089Z,1038.16
2019-02-23T11:26:33.079Z,1038.18
2019-02-23T11:27:33.079Z,1038.13
2019-02-23T11:28:33.057Z,1038.10
2019-02-23T11:29:33.049Z,1038.06
2019-02-23T11:30:33.037Z,1038.06
2019-02-23T11:31:33.025Z,1038.06
2019-02-23T11:32:33.022Z,1038.10
2019-02-23T11:33:33.005Z,1038.13
2019-02-23T11:34:32.998Z,1038.12
2019-02-23T11:35:32.981Z,1038.10
2019-02-23T11:36:32.971Z,1038.08
2019-02-23T11:37:32.968Z,1038.08
2019-02-23T11:38:32.953Z,1038.05
2019-02-23T11:39:32.943Z,1037.98
2019-02-23T11:40:32.928Z,1037.98
2019-02-23T11:41:32.919Z,1038.00
2019-02-23T11:42:32.915Z,1038.00
2019-02-23T11:43:32.897Z,1038.03
2019-02-23T11:44:32.890Z,1038.02
2019-02-23T11:45:32.874Z,1038.00
2019-02-23T11:46:32.863Z,1038.02
2019-02-23T11:47:32.863Z,1038.04
2019-02-23T11:48:32.844Z,1038.04
2019-02-23T11:49:32.834Z,1038.04
2019-02-23T11:50:32.820Z,1038.04
2019-02-23T11:51:32.810Z,1038.07
2019-02-23T11:52:32.812Z,1038.06
2019-02-23T11:53:32.789Z,1038.03
2019-02-23T11:54:32.778Z,1038.08
2019-02-23T11:55:32.768Z,1038.06
2019-02-23T11:56:32.758Z,1038.03
2019-02-23T11:57:32.761Z,1037.98
2019-02-23T11:58:32.737Z,1037.96
2019-02-23T11:59:32.725Z,1037.96
2019-02-23T12:00:32.715Z,1038.03
2019-02-23T12:01:32.705Z,1037.98
2019-02-23T12:02:32.701Z,1037.95
2019-02-23T12:03:32.684Z,1037.97
2019-02-23T12:04:32.674Z,1037.95
2019-02-23T12:05:32.663Z,1037.93